Schedule Details


Flight Number: CTN631
Departure: Pula (LDPL) at 06:00
Arrival: Zemunik (LDZD) at 06:35
Route: LOS N606 EBITA

Weather Information
LDPL 191000Z 28007KT 9999 BKN050 12/06 Q1020 NOSIG
LDZD 191000Z 14006KT 080V170 9999 FEW045 BKN070 13/M00 Q1020 NOSIG
Schedule Frequency

Route Map